sensor_id;sensor_type;location;lat;lon;timestamp;temperature;humidity
41471;DHT22;27211;51.220;5.308;2023-02-14T05:26:14;3.50;99.90
41471;DHT22;27211;51.220;5.308;2023-02-14T05:28:48;3.50;99.90
41471;DHT22;27211;51.220;5.308;2023-02-14T05:31:21;3.40;99.90
41471;DHT22;27211;51.220;5.308;2023-02-14T05:33:58;3.40;99.90
41471;DHT22;27211;51.220;5.308;2023-02-14T05:36:27;3.40;99.90
41471;DHT22;27211;51.220;5.308;2023-02-14T05:38:57;3.30;99.90
41471;DHT22;27211;51.220;5.308;2023-02-14T05:41:38;3.40;99.90
41471;DHT22;27211;51.220;5.308;2023-02-14T05:44:07;3.30;99.90
41471;DHT22;27211;51.220;5.308;2023-02-14T05:46:43;3.30;99.90
41471;DHT22;27211;51.220;5.308;2023-02-14T05:49:16;3.30;99.90
41471;DHT22;27211;51.220;5.308;2023-02-14T05:51:45;3.30;99.90
41471;DHT22;27211;51.220;5.308;2023-02-14T05:54:20;3.20;99.90
41471;DHT22;27211;51.220;5.308;2023-02-14T05:56:47;3.20;99.90
41471;DHT22;27211;51.220;5.308;2023-02-14T05:59:14;3.30;99.90
41471;DHT22;27211;51.220;5.308;2023-02-14T06:01:41;3.30;99.90
41471;DHT22;27211;51.220;5.308;2023-02-14T06:04:10;3.30;99.90
41471;DHT22;27211;51.220;5.308;2023-02-14T06:06:38;3.30;99.90
41471;DHT22;27211;51.220;5.308;2023-02-14T06:09:09;3.30;99.90
41471;DHT22;27211;51.220;5.308;2023-02-14T06:11:37;3.50;99.90
41471;DHT22;27211;51.220;5.308;2023-02-14T06:14:03;3.30;99.90
41471;DHT22;27211;51.220;5.308;2023-02-14T06:16:30;3.20;99.90
41471;DHT22;27211;51.220;5.308;2023-02-14T06:18:57;3.20;99.90
41471;DHT22;27211;51.220;5.308;2023-02-14T06:21:25;3.20;99.90
41471;DHT22;27211;51.220;5.308;2023-02-14T06:23:54;3.10;99.90
41471;DHT22;27211;51.220;5.308;2023-02-14T06:26:22;3.10;99.90
41471;DHT22;27211;51.220;5.308;2023-02-14T06:28:54;3.10;99.90
41471;DHT22;27211;51.220;5.308;2023-02-14T06:31:20;3.10;99.90
41471;DHT22;27211;51.220;5.308;2023-02-14T06:33:47;3.10;99.90
41471;DHT22;27211;51.220;5.308;2023-02-14T06:36:14;3.10;99.90
41471;DHT22;27211;51.220;5.308;2023-02-14T06:38:41;3.10;99.90
41471;DHT22;27211;51.220;5.308;2023-02-14T06:41:09;3.20;99.90
41471;DHT22;27211;51.220;5.308;2023-02-14T06:43:36;3.20;99.90
41471;DHT22;27211;51.220;5.308;2023-02-14T06:46:03;3.20;99.90
41471;DHT22;27211;51.220;5.308;2023-02-14T06:48:30;3.20;99.90
41471;DHT22;27211;51.220;5.308;2023-02-14T06:50:58;3.10;99.90
41471;DHT22;27211;51.220;5.308;2023-02-14T06:53:27;3.10;99.90
41471;DHT22;27211;51.220;5.308;2023-02-14T06:55:56;3.20;99.90
41471;DHT22;27211;51.220;5.308;2023-02-14T06:58:25;3.10;99.90
41471;DHT22;27211;51.220;5.308;2023-02-14T07:00:58;3.10;99.90
41471;DHT22;27211;51.220;5.308;2023-02-14T07:03:27;3.00;99.90
41471;DHT22;27211;51.220;5.308;2023-02-14T07:05:57;3.00;99.90
41471;DHT22;27211;51.220;5.308;2023-02-14T07:08:26;3.10;99.90
41471;DHT22;27211;51.220;5.308;2023-02-14T07:10:57;3.00;99.90
41471;DHT22;27211;51.220;5.308;2023-02-14T07:13:24;3.10;99.90
41471;DHT22;27211;51.220;5.308;2023-02-14T07:15:51;3.10;99.90
41471;DHT22;27211;51.220;5.308;2023-02-14T07:18:18;3.10;99.90
41471;DHT22;27211;51.220;5.308;2023-02-14T07:20:46;3.20;99.90
41471;DHT22;27211;51.220;5.308;2023-02-14T07:23:16;3.30;99.90
41471;DHT22;27211;51.220;5.308;2023-02-14T07:25:48;3.40;99.90
41471;DHT22;27211;51.220;5.308;2023-02-14T07:28:19;3.50;99.90
41471;DHT22;27211;51.220;5.308;2023-02-14T07:30:48;3.60;99.90
41471;DHT22;27211;51.220;5.308;2023-02-14T07:33:18;3.90;99.90
41471;DHT22;27211;51.220;5.308;2023-02-14T07:35:47;3.90;99.90
41471;DHT22;27211;51.220;5.308;2023-02-14T07:38:16;4.20;99.90
41471;DHT22;27211;51.220;5.308;2023-02-14T07:40:45;4.60;99.90
41471;DHT22;27211;51.220;5.308;2023-02-14T07:43:12;5.10;99.90
41471;DHT22;27211;51.220;5.308;2023-02-14T07:45:43;5.50;99.90
41471;DHT22;27211;51.220;5.308;2023-02-14T07:48:10;5.80;99.90
41471;DHT22;27211;51.220;5.308;2023-02-14T07:50:38;6.10;99.90
41471;DHT22;27211;51.220;5.308;2023-02-14T07:53:18;6.20;99.90
41471;DHT22;27211;51.220;5.308;2023-02-14T07:55:49;6.10;99.90
41471;DHT22;27211;51.220;5.308;2023-02-14T07:58:19;6.00;99.90
41471;DHT22;27211;51.220;5.308;2023-02-14T08:00:50;5.90;99.90
41471;DHT22;27211;51.220;5.308;2023-02-14T08:03:20;5.80;99.90
41471;DHT22;27211;51.220;5.308;2023-02-14T08:05:50;6.00;99.90
41471;DHT22;27211;51.220;5.308;2023-02-14T08:08:24;6.10;99.90
41471;DHT22;27211;51.220;5.308;2023-02-14T08:10:53;6.30;99.90
41471;DHT22;27211;51.220;5.308;2023-02-14T08:13:20;6.60;99.90
41471;DHT22;27211;51.220;5.308;2023-02-14T08:15:50;6.80;99.90
41471;DHT22;27211;51.220;5.308;2023-02-14T08:18:40;7.40;99.90
41471;DHT22;27211;51.220;5.308;2023-02-14T08:21:10;8.20;99.90
41471;DHT22;27211;51.220;5.308;2023-02-14T08:23:38;8.70;99.90
41471;DHT22;27211;51.220;5.308;2023-02-14T08:26:10;9.20;99.90
41471;DHT22;27211;51.220;5.308;2023-02-14T08:28:40;9.80;99.90
41471;DHT22;27211;51.220;5.308;2023-02-14T08:31:09;10.30;99.90
41471;DHT22;27211;51.220;5.308;2023-02-14T08:33:38;10.60;99.90
41471;DHT22;27211;51.220;5.308;2023-02-14T08:36:07;11.00;99.90
41471;DHT22;27211;51.220;5.308;2023-02-14T08:38:36;11.30;99.90
41471;DHT22;27211;51.220;5.308;2023-02-14T08:41:04;11.80;99.90
41471;DHT22;27211;51.220;5.308;2023-02-14T08:43:31;12.30;99.90
41471;DHT22;27211;51.220;5.308;2023-02-14T08:45:57;12.10;99.90
41471;DHT22;27211;51.220;5.308;2023-02-14T08:48:24;12.10;99.90
41471;DHT22;27211;51.220;5.308;2023-02-14T08:50:52;12.30;99.90
41471;DHT22;27211;51.220;5.308;2023-02-14T08:53:23;12.10;99.90
41471;DHT22;27211;51.220;5.308;2023-02-14T08:55:53;12.30;99.90
41471;DHT22;27211;51.220;5.308;2023-02-14T08:58:22;12.40;99.90
41471;DHT22;27211;51.220;5.308;2023-02-14T09:00:49;12.50;99.90
41471;DHT22;27211;51.220;5.308;2023-02-14T09:03:18;12.50;99.90
41471;DHT22;27211;51.220;5.308;2023-02-14T09:05:47;12.40;99.90
41471;DHT22;27211;51.220;5.308;2023-02-14T09:08:17;11.90;99.90
41471;DHT22;27211;51.220;5.308;2023-02-14T09:10:46;11.50;99.90
41471;DHT22;27211;51.220;5.308;2023-02-14T09:13:13;10.70;99.90
41471;DHT22;27211;51.220;5.308;2023-02-14T09:15:40;10.50;99.90
41471;DHT22;27211;51.220;5.308;2023-02-14T09:18:07;10.60;99.90
41471;DHT22;27211;51.220;5.308;2023-02-14T09:20:54;11.00;99.90
41471;DHT22;27211;51.220;5.308;2023-02-14T09:23:21;11.20;99.90
41471;DHT22;27211;51.220;5.308;2023-02-14T09:25:48;11.70;99.90
41471;DHT22;27211;51.220;5.308;2023-02-14T09:28:15;12.50;99.90
41471;DHT22;27211;51.220;5.308;2023-02-14T09:30:41;13.50;99.90
41471;DHT22;27211;51.220;5.308;2023-02-14T09:33:08;14.00;99.90
41471;DHT22;27211;51.220;5.308;2023-02-14T09:35:45;14.60;99.90
41471;DHT22;27211;51.220;5.308;2023-02-14T09:38:32;15.30;99.90
41471;DHT22;27211;51.220;5.308;2023-02-14T09:41:07;16.00;99.90
41471;DHT22;27211;51.220;5.308;2023-02-14T09:43:58;16.20;99.50
41471;DHT22;27211;51.220;5.308;2023-02-14T09:46:27;16.70;98.80
41471;DHT22;27211;51.220;5.308;2023-02-14T09:48:56;17.00;98.60
41471;DHT22;27211;51.220;5.308;2023-02-14T09:51:27;17.40;97.30
41471;DHT22;27211;51.220;5.308;2023-02-14T09:53:57;18.40;96.00
41471;DHT22;27211;51.220;5.308;2023-02-14T09:59:23;19.40;92.90
41471;DHT22;27211;51.220;5.308;2023-02-14T10:01:58;19.30;93.00
41471;DHT22;27211;51.220;5.308;2023-02-14T10:10:41;21.10;90.10
41471;DHT22;27211;51.220;5.308;2023-02-14T10:13:41;21.00;88.00
41471;DHT22;27211;51.220;5.308;2023-02-14T10:18:55;21.70;83.70
41471;DHT22;27211;51.220;5.308;2023-02-14T10:21:33;22.70;80.40
41471;DHT22;27211;51.220;5.308;2023-02-14T10:24:26;22.30;78.80
41471;DHT22;27211;51.220;5.308;2023-02-14T10:27:00;22.80;76.80
41471;DHT22;27211;51.220;5.308;2023-02-14T10:29:28;22.80;76.90
41471;DHT22;27211;51.220;5.308;2023-02-14T10:32:02;23.30;74.00
41471;DHT22;27211;51.220;5.308;2023-02-14T10:34:46;22.90;73.10
41471;DHT22;27211;51.220;5.308;2023-02-14T10:40:03;22.10;74.60
41471;DHT22;27211;51.220;5.308;2023-02-14T10:45:39;23.20;72.50
41471;DHT22;27211;51.220;5.308;2023-02-14T10:50:55;23.30;70.80
41471;DHT22;27211;51.220;5.308;2023-02-14T10:56:10;24.20;68.60
41471;DHT22;27211;51.220;5.308;2023-02-14T10:58:39;24.40;67.60
41471;DHT22;27211;51.220;5.308;2023-02-14T11:01:12;24.50;66.40
41471;DHT22;27211;51.220;5.308;2023-02-14T11:03:41;24.00;66.70
41471;DHT22;27211;51.220;5.308;2023-02-14T11:06:19;23.90;66.30
41471;DHT22;27211;51.220;5.308;2023-02-14T11:08:48;24.10;66.10
41471;DHT22;27211;51.220;5.308;2023-02-14T11:11:26;23.80;66.40
41471;DHT22;27211;51.220;5.308;2023-02-14T11:13:55;24.10;66.20
41471;DHT22;27211;51.220;5.308;2023-02-14T11:16:30;23.80;66.20
41471;DHT22;27211;51.220;5.308;2023-02-14T11:21:40;24.90;64.40
41471;DHT22;27211;51.220;5.308;2023-02-14T11:26:55;25.50;63.20
41471;DHT22;27211;51.220;5.308;2023-02-14T11:29:41;25.80;61.40
41471;DHT22;27211;51.220;5.308;2023-02-14T11:32:15;25.70;61.60
41471;DHT22;27211;51.220;5.308;2023-02-14T11:34:58;25.30;60.90
41471;DHT22;27211;51.220;5.308;2023-02-14T11:37:29;26.30;60.30
41471;DHT22;27211;51.220;5.308;2023-02-14T11:39:59;26.40;60.00
41471;DHT22;27211;51.220;5.308;2023-02-14T11:42:42;27.10;59.10
41471;DHT22;27211;51.220;5.308;2023-02-14T11:48:27;26.90;58.30
41471;DHT22;27211;51.220;5.308;2023-02-14T11:51:01;27.30;58.20
41471;DHT22;27211;51.220;5.308;2023-02-14T11:56:09;28.30;55.30
41471;DHT22;27211;51.220;5.308;2023-02-14T11:58:39;27.70;55.50
41471;DHT22;27211;51.220;5.308;2023-02-14T12:01:34;28.00;55.50
41471;DHT22;27211;51.220;5.308;2023-02-14T12:04:24;28.70;54.90
41471;DHT22;27211;51.220;5.308;2023-02-14T12:07:09;29.30;53.30
41471;DHT22;27211;51.220;5.308;2023-02-14T12:09:39;28.90;53.30
41471;DHT22;27211;51.220;5.308;2023-02-14T12:12:17;28.80;54.10
41471;DHT22;27211;51.220;5.308;2023-02-14T12:14:45;28.60;53.80
41471;DHT22;27211;51.220;5.308;2023-02-14T12:17:43;27.90;53.60
41471;DHT22;27211;51.220;5.308;2023-02-14T12:20:14;28.60;53.60
41471;DHT22;27211;51.220;5.308;2023-02-14T12:22:50;28.90;52.60
41471;DHT22;27211;51.220;5.308;2023-02-14T12:25:41;29.00;52.10
41471;DHT22;27211;51.220;5.308;2023-02-14T12:28:12;28.10;52.30
41471;DHT22;27211;51.220;5.308;2023-02-14T12:30:40;28.20;53.00
41471;DHT22;27211;51.220;5.308;2023-02-14T12:33:21;27.90;52.60
41471;DHT22;27211;51.220;5.308;2023-02-14T12:35:58;27.60;53.30
41471;DHT22;27211;51.220;5.308;2023-02-14T12:38:51;28.60;52.00
41471;DHT22;27211;51.220;5.308;2023-02-14T12:41:40;29.90;50.60
41471;DHT22;27211;51.220;5.308;2023-02-14T12:44:29;28.60;51.30
41471;DHT22;27211;51.220;5.308;2023-02-14T12:53:01;28.70;50.90
41471;DHT22;27211;51.220;5.308;2023-02-14T12:55:44;28.60;50.90
41471;DHT22;27211;51.220;5.308;2023-02-14T13:01:34;28.60;51.70
41471;DHT22;27211;51.220;5.308;2023-02-14T17:11:12;13.90;94.90
41471;DHT22;27211;51.220;5.308;2023-02-14T17:13:41;13.60;97.00
41471;DHT22;27211;51.220;5.308;2023-02-14T17:16:09;13.40;98.40
41471;DHT22;27211;51.220;5.308;2023-02-14T17:18:40;13.20;99.70
41471;DHT22;27211;51.220;5.308;2023-02-14T17:21:10;13.10;99.90
41471;DHT22;27211;51.220;5.308;2023-02-14T17:23:38;13.00;99.90
41471;DHT22;27211;51.220;5.308;2023-02-14T17:26:11;12.70;99.90
41471;DHT22;27211;51.220;5.308;2023-02-14T17:28:39;12.60;99.90
41471;DHT22;27211;51.220;5.308;2023-02-14T17:31:09;12.40;99.90
41471;DHT22;27211;51.220;5.308;2023-02-14T17:33:37;12.40;99.90
41471;DHT22;27211;51.220;5.308;2023-02-14T17:36:06;12.20;99.90
41471;DHT22;27211;51.220;5.308;2023-02-14T17:38:34;12.10;99.90
41471;DHT22;27211;51.220;5.308;2023-02-14T17:41:15;12.00;99.90
41471;DHT22;27211;51.220;5.308;2023-02-14T17:43:44;12.10;99.90
41471;DHT22;27211;51.220;5.308;2023-02-14T17:46:11;11.80;99.90
41471;DHT22;27211;51.220;5.308;2023-02-14T17:48:39;11.60;99.90
41471;DHT22;27211;51.220;5.308;2023-02-14T17:51:09;11.50;99.90
41471;DHT22;27211;51.220;5.308;2023-02-14T17:53:36;11.40;99.90
41471;DHT22;27211;51.220;5.308;2023-02-14T17:56:21;11.30;99.90
41471;DHT22;27211;51.220;5.308;2023-02-14T17:58:50;11.30;99.90
41471;DHT22;27211;51.220;5.308;2023-02-14T18:01:20;11.30;99.90
41471;DHT22;27211;51.220;5.308;2023-02-14T18:03:47;11.00;99.90
41471;DHT22;27211;51.220;5.308;2023-02-14T18:06:14;10.90;99.90
41471;DHT22;27211;51.220;5.308;2023-02-14T18:08:45;10.70;99.90
41471;DHT22;27211;51.220;5.308;2023-02-14T18:11:14;10.70;99.90
41471;DHT22;27211;51.220;5.308;2023-02-14T18:13:41;10.80;99.90
41471;DHT22;27211;51.220;5.308;2023-02-14T18:16:11;10.70;99.90
41471;DHT22;27211;51.220;5.308;2023-02-14T18:18:38;10.60;99.90
41471;DHT22;27211;51.220;5.308;2023-02-14T18:21:10;10.40;99.90
41471;DHT22;27211;51.220;5.308;2023-02-14T18:23:42;10.40;99.90
41471;DHT22;27211;51.220;5.308;2023-02-14T18:26:14;10.30;99.90
41471;DHT22;27211;51.220;5.308;2023-02-14T18:28:42;10.20;99.90
41471;DHT22;27211;51.220;5.308;2023-02-14T18:31:11;10.10;99.90
41471;DHT22;27211;51.220;5.308;2023-02-14T18:33:39;9.90;99.90
41471;DHT22;27211;51.220;5.308;2023-02-14T18:36:08;10.00;99.90
41471;DHT22;27211;51.220;5.308;2023-02-14T18:38:44;9.90;99.90
41471;DHT22;27211;51.220;5.308;2023-02-14T18:41:16;9.70;99.90
41471;DHT22;27211;51.220;5.308;2023-02-14T18:43:46;9.70;99.90
41471;DHT22;27211;51.220;5.308;2023-02-14T18:46:21;9.50;99.90
41471;DHT22;27211;51.220;5.308;2023-02-14T18:48:54;9.50;99.90
41471;DHT22;27211;51.220;5.308;2023-02-14T18:51:27;9.40;99.90
41471;DHT22;27211;51.220;5.308;2023-02-14T18:53:57;9.30;99.90
41471;DHT22;27211;51.220;5.308;2023-02-14T18:56:27;9.20;99.90
41471;DHT22;27211;51.220;5.308;2023-02-14T18:58:57;9.20;99.90
41471;DHT22;27211;51.220;5.308;2023-02-14T19:01:27;9.20;99.90
41471;DHT22;27211;51.220;5.308;2023-02-14T19:04:02;9.10;99.90
41471;DHT22;27211;51.220;5.308;2023-02-14T19:06:30;9.10;99.90
41471;DHT22;27211;51.220;5.308;2023-02-14T19:08:58;9.10;99.90
41471;DHT22;27211;51.220;5.308;2023-02-14T19:11:28;8.90;99.90
41471;DHT22;27211;51.220;5.308;2023-02-14T19:13:58;8.80;99.90
41471;DHT22;27211;51.220;5.308;2023-02-14T19:16:27;8.80;99.90
41471;DHT22;27211;51.220;5.308;2023-02-14T19:18:54;8.80;99.90
41471;DHT22;27211;51.220;5.308;2023-02-14T19:21:25;8.80;99.90
41471;DHT22;27211;51.220;5.308;2023-02-14T19:23:54;8.80;99.90
41471;DHT22;27211;51.220;5.308;2023-02-14T19:26:25;8.70;99.90
41471;DHT22;27211;51.220;5.308;2023-02-14T19:28:58;8.70;99.90
41471;DHT22;27211;51.220;5.308;2023-02-14T19:31:25;8.70;99.90
41471;DHT22;27211;51.220;5.308;2023-02-14T19:33:52;8.60;99.90
41471;DHT22;27211;51.220;5.308;2023-02-14T19:36:20;8.50;99.90
41471;DHT22;27211;51.220;5.308;2023-02-14T19:38:49;8.40;99.90
41471;DHT22;27211;51.220;5.308;2023-02-14T19:41:26;8.30;99.90
41471;DHT22;27211;51.220;5.308;2023-02-14T19:43:56;8.20;99.90
41471;DHT22;27211;51.220;5.308;2023-02-14T19:46:23;8.10;99.90
41471;DHT22;27211;51.220;5.308;2023-02-14T19:48:50;8.00;99.90
41471;DHT22;27211;51.220;5.308;2023-02-14T19:51:21;8.00;99.90
41471;DHT22;27211;51.220;5.308;2023-02-14T19:53:48;7.90;99.90
41471;DHT22;27211;51.220;5.308;2023-02-14T19:56:22;7.90;99.90
41471;DHT22;27211;51.220;5.308;2023-02-14T19:58:51;7.80;99.90
41471;DHT22;27211;51.220;5.308;2023-02-14T20:01:41;7.70;99.90
41471;DHT22;27211;51.220;5.308;2023-02-14T20:04:16;7.60;99.90
41471;DHT22;27211;51.220;5.308;2023-02-14T20:06:51;7.60;99.90
41471;DHT22;27211;51.220;5.308;2023-02-14T20:09:19;7.50;99.90
41471;DHT22;27211;51.220;5.308;2023-02-14T20:11:51;7.50;99.90
41471;DHT22;27211;51.220;5.308;2023-02-14T20:14:39;7.50;99.90
41471;DHT22;27211;51.220;5.308;2023-02-14T20:17:06;7.50;99.90
41471;DHT22;27211;51.220;5.308;2023-02-14T20:19:34;7.40;99.90
41471;DHT22;27211;51.220;5.308;2023-02-14T20:22:02;7.40;99.90
41471;DHT22;27211;51.220;5.308;2023-02-14T20:24:32;7.30;99.90
41471;DHT22;27211;51.220;5.308;2023-02-14T20:27:00;7.30;99.90
41471;DHT22;27211;51.220;5.308;2023-02-14T20:29:30;7.20;99.90
41471;DHT22;27211;51.220;5.308;2023-02-14T20:31:58;7.10;99.90
41471;DHT22;27211;51.220;5.308;2023-02-14T20:34:28;7.00;99.90
41471;DHT22;27211;51.220;5.308;2023-02-14T20:36:57;7.00;99.90
41471;DHT22;27211;51.220;5.308;2023-02-14T20:39:33;6.90;99.90
41471;DHT22;27211;51.220;5.308;2023-02-14T20:42:00;6.80;99.90
41471;DHT22;27211;51.220;5.308;2023-02-14T20:44:27;6.70;99.90
41471;DHT22;27211;51.220;5.308;2023-02-14T20:46:55;6.80;99.90
41471;DHT22;27211;51.220;5.308;2023-02-14T20:49:23;6.70;99.90
41471;DHT22;27211;51.220;5.308;2023-02-14T20:51:50;6.60;99.90
41471;DHT22;27211;51.220;5.308;2023-02-14T20:54:18;6.70;99.90
41471;DHT22;27211;51.220;5.308;2023-02-14T20:56:45;6.60;99.90
41471;DHT22;27211;51.220;5.308;2023-02-14T20:59:12;6.60;99.90
41471;DHT22;27211;51.220;5.308;2023-02-14T21:01:38;6.50;99.90
41471;DHT22;27211;51.220;5.308;2023-02-14T21:04:08;6.40;99.90
41471;DHT22;27211;51.220;5.308;2023-02-14T21:06:49;6.40;99.90
41471;DHT22;27211;51.220;5.308;2023-02-14T21:09:16;6.40;99.90
41471;DHT22;27211;51.220;5.308;2023-02-14T21:11:45;6.30;99.90
41471;DHT22;27211;51.220;5.308;2023-02-14T21:14:16;6.40;99.90
41471;DHT22;27211;51.220;5.308;2023-02-14T21:16:43;6.30;99.90
41471;DHT22;27211;51.220;5.308;2023-02-14T21:19:10;6.20;99.90
41471;DHT22;27211;51.220;5.308;2023-02-14T21:21:51;6.20;99.90
41471;DHT22;27211;51.220;5.308;2023-02-14T21:24:19;6.10;99.90
41471;DHT22;27211;51.220;5.308;2023-02-14T21:26:46;6.00;99.90
41471;DHT22;27211;51.220;5.308;2023-02-14T21:29:13;6.00;99.90
41471;DHT22;27211;51.220;5.308;2023-02-14T21:31:43;6.00;99.90
41471;DHT22;27211;51.220;5.308;2023-02-14T21:34:09;6.00;99.90
41471;DHT22;27211;51.220;5.308;2023-02-14T21:37:09;5.80;99.90
41471;DHT22;27211;51.220;5.308;2023-02-14T21:39:37;5.80;99.90
41471;DHT22;27211;51.220;5.308;2023-02-14T21:42:05;5.70;99.90
41471;DHT22;27211;51.220;5.308;2023-02-14T21:44:33;5.60;99.90
41471;DHT22;27211;51.220;5.308;2023-02-14T21:47:17;5.60;99.90
41471;DHT22;27211;51.220;5.308;2023-02-14T21:49:45;5.50;99.90
41471;DHT22;27211;51.220;5.308;2023-02-14T21:52:31;5.50;99.90
41471;DHT22;27211;51.220;5.308;2023-02-14T21:54:59;5.50;99.90
41471;DHT22;27211;51.220;5.308;2023-02-14T21:57:29;5.50;99.90
41471;DHT22;27211;51.220;5.308;2023-02-14T21:59:56;5.50;99.90
41471;DHT22;27211;51.220;5.308;2023-02-14T22:02:24;5.50;99.90
41471;DHT22;27211;51.220;5.308;2023-02-14T22:04:53;5.60;99.90
41471;DHT22;27211;51.220;5.308;2023-02-14T22:07:21;5.50;99.90
41471;DHT22;27211;51.220;5.308;2023-02-14T22:09:56;5.50;99.90
41471;DHT22;27211;51.220;5.308;2023-02-14T22:12:23;5.50;99.90
41471;DHT22;27211;51.220;5.308;2023-02-14T22:14:50;5.60;99.90
41471;DHT22;27211;51.220;5.308;2023-02-14T22:17:17;5.60;99.90
41471;DHT22;27211;51.220;5.308;2023-02-14T22:19:44;5.40;99.90
41471;DHT22;27211;51.220;5.308;2023-02-14T22:22:15;5.40;99.90
41471;DHT22;27211;51.220;5.308;2023-02-14T22:24:43;5.30;99.90
41471;DHT22;27211;51.220;5.308;2023-02-14T22:27:10;5.30;99.90
41471;DHT22;27211;51.220;5.308;2023-02-14T22:29:41;5.30;99.90
41471;DHT22;27211;51.220;5.308;2023-02-14T22:32:08;5.30;99.90
41471;DHT22;27211;51.220;5.308;2023-02-14T22:34:34;5.40;99.90
41471;DHT22;27211;51.220;5.308;2023-02-14T22:37:02;5.30;99.90
41471;DHT22;27211;51.220;5.308;2023-02-14T22:39:31;5.30;99.90
41471;DHT22;27211;51.220;5.308;2023-02-14T22:41:58;5.20;99.90
41471;DHT22;27211;51.220;5.308;2023-02-14T22:44:29;5.20;99.90
41471;DHT22;27211;51.220;5.308;2023-02-14T22:46:56;5.10;99.90
41471;DHT22;27211;51.220;5.308;2023-02-14T22:49:23;5.10;99.90
41471;DHT22;27211;51.220;5.308;2023-02-14T22:51:50;5.10;99.90
41471;DHT22;27211;51.220;5.308;2023-02-14T22:54:25;5.00;99.90
41471;DHT22;27211;51.220;5.308;2023-02-14T22:56:52;5.00;99.90
41471;DHT22;27211;51.220;5.308;2023-02-14T22:59:23;5.00;99.90
41471;DHT22;27211;51.220;5.308;2023-02-14T23:01:51;5.00;99.90
41471;DHT22;27211;51.220;5.308;2023-02-14T23:04:19;5.00;99.90
41471;DHT22;27211;51.220;5.308;2023-02-14T23:06:50;4.90;99.90
41471;DHT22;27211;51.220;5.308;2023-02-14T23:09:24;4.80;99.90
41471;DHT22;27211;51.220;5.308;2023-02-14T23:11:54;4.80;99.90
41471;DHT22;27211;51.220;5.308;2023-02-14T23:14:21;4.80;99.90
41471;DHT22;27211;51.220;5.308;2023-02-14T23:17:05;4.80;99.90
41471;DHT22;27211;51.220;5.308;2023-02-14T23:19:50;4.70;99.90
41471;DHT22;27211;51.220;5.308;2023-02-14T23:22:39;4.70;99.90
41471;DHT22;27211;51.220;5.308;2023-02-14T23:25:12;4.60;99.90
41471;DHT22;27211;51.220;5.308;2023-02-14T23:27:43;4.60;99.90
41471;DHT22;27211;51.220;5.308;2023-02-14T23:30:14;4.60;99.90
41471;DHT22;27211;51.220;5.308;2023-02-14T23:32:41;4.50;99.90
41471;DHT22;27211;51.220;5.308;2023-02-14T23:35:08;4.60;99.90
41471;DHT22;27211;51.220;5.308;2023-02-14T23:37:38;4.50;99.90
41471;DHT22;27211;51.220;5.308;2023-02-14T23:40:07;4.40;99.90
41471;DHT22;27211;51.220;5.308;2023-02-14T23:42:36;4.40;99.90
41471;DHT22;27211;51.220;5.308;2023-02-14T23:45:03;4.50;99.90
41471;DHT22;27211;51.220;5.308;2023-02-14T23:47:48;4.30;99.90
41471;DHT22;27211;51.220;5.308;2023-02-14T23:50:14;4.40;99.90
41471;DHT22;27211;51.220;5.308;2023-02-14T23:52:42;4.40;99.90
41471;DHT22;27211;51.220;5.308;2023-02-14T23:55:11;4.40;99.90
41471;DHT22;27211;51.220;5.308;2023-02-14T23:57:38;4.40;99.90
